sensor_id;sensor_type;location;lat;lon;timestamp;P1;durP1;ratioP1;P2;durP2;ratioP2
50056;SDS011;36875;49.468;11.200;2023-05-17T00:02:00;3.53;;;1.40;;
50056;SDS011;36875;49.468;11.200;2023-05-17T00:04:27;2.95;;;1.15;;
50056;SDS011;36875;49.468;11.200;2023-05-17T00:06:53;3.90;;;1.50;;
50056;SDS011;36875;49.468;11.200;2023-05-17T00:09:18;2.65;;;1.50;;
50056;SDS011;36875;49.468;11.200;2023-05-17T00:11:44;5.85;;;1.20;;
50056;SDS011;36875;49.468;11.200;2023-05-17T00:14:09;3.92;;;1.17;;
50056;SDS011;36875;49.468;11.200;2023-05-17T00:16:35;4.75;;;1.33;;
50056;SDS011;36875;49.468;11.200;2023-05-17T00:19:01;2.67;;;1.30;;
50056;SDS011;36875;49.468;11.200;2023-05-17T00:21:28;2.55;;;1.05;;
50056;SDS011;36875;49.468;11.200;2023-05-17T00:23:53;3.28;;;1.30;;
50056;SDS011;36875;49.468;11.200;2023-05-17T00:26:19;5.03;;;1.50;;
50056;SDS011;36875;49.468;11.200;2023-05-17T00:28:44;3.25;;;1.00;;
50056;SDS011;36875;49.468;11.200;2023-05-17T00:31:10;3.20;;;0.98;;
50056;SDS011;36875;49.468;11.200;2023-05-17T00:33:35;3.20;;;1.30;;
50056;SDS011;36875;49.468;11.200;2023-05-17T00:36:01;2.15;;;1.10;;
50056;SDS011;36875;49.468;11.200;2023-05-17T00:38:28;4.00;;;1.20;;
50056;SDS011;36875;49.468;11.200;2023-05-17T00:40:53;4.13;;;1.83;;
50056;SDS011;36875;49.468;11.200;2023-05-17T00:43:19;2.42;;;1.13;;
50056;SDS011;36875;49.468;11.200;2023-05-17T00:45:44;2.85;;;1.30;;
50056;SDS011;36875;49.468;11.200;2023-05-17T00:48:12;2.60;;;1.10;;
50056;SDS011;36875;49.468;11.200;2023-05-17T00:50:38;3.90;;;1.30;;
50056;SDS011;36875;49.468;11.200;2023-05-17T00:53:03;2.92;;;1.40;;
50056;SDS011;36875;49.468;11.200;2023-05-17T00:55:30;2.97;;;1.10;;
50056;SDS011;36875;49.468;11.200;2023-05-17T00:57:56;4.03;;;1.00;;
50056;SDS011;36875;49.468;11.200;2023-05-17T01:00:21;2.72;;;1.15;;
50056;SDS011;36875;49.468;11.200;2023-05-17T01:02:47;2.92;;;1.20;;
50056;SDS011;36875;49.468;11.200;2023-05-17T01:05:13;3.17;;;0.93;;
50056;SDS011;36875;49.468;11.200;2023-05-17T01:07:39;4.03;;;1.40;;
50056;SDS011;36875;49.468;11.200;2023-05-17T01:10:05;2.03;;;1.00;;
50056;SDS011;36875;49.468;11.200;2023-05-17T01:12:36;2.85;;;1.30;;
50056;SDS011;36875;49.468;11.200;2023-05-17T01:15:11;1.83;;;1.13;;
50056;SDS011;36875;49.468;11.200;2023-05-17T01:17:40;4.15;;;1.20;;
50056;SDS011;36875;49.468;11.200;2023-05-17T01:20:16;2.17;;;1.05;;
50056;SDS011;36875;49.468;11.200;2023-05-17T01:22:48;1.88;;;1.10;;
50056;SDS011;36875;49.468;11.200;2023-05-17T01:25:27;2.33;;;1.20;;
50056;SDS011;36875;49.468;11.200;2023-05-17T01:28:00;1.88;;;1.00;;
50056;SDS011;36875;49.468;11.200;2023-05-17T01:30:28;3.50;;;1.10;;
50056;SDS011;36875;49.468;11.200;2023-05-17T01:32:56;4.90;;;1.17;;
50056;SDS011;36875;49.468;11.200;2023-05-17T01:35:23;3.13;;;1.00;;
50056;SDS011;36875;49.468;11.200;2023-05-17T01:37:49;2.80;;;1.10;;
50056;SDS011;36875;49.468;11.200;2023-05-17T01:40:16;3.58;;;1.00;;
50056;SDS011;36875;49.468;11.200;2023-05-17T01:42:43;1.92;;;0.88;;
50056;SDS011;36875;49.468;11.200;2023-05-17T01:45:14;4.18;;;0.98;;
50056;SDS011;36875;49.468;11.200;2023-05-17T01:47:47;2.28;;;1.25;;
50056;SDS011;36875;49.468;11.200;2023-05-17T01:50:18;3.00;;;1.20;;
50056;SDS011;36875;49.468;11.200;2023-05-17T01:52:49;6.25;;;1.42;;
50056;SDS011;36875;49.468;11.200;2023-05-17T01:55:19;3.42;;;1.10;;
50056;SDS011;36875;49.468;11.200;2023-05-17T01:57:51;2.03;;;1.17;;
50056;SDS011;36875;49.468;11.200;2023-05-17T02:00:19;3.53;;;1.05;;
50056;SDS011;36875;49.468;11.200;2023-05-17T02:02:46;2.38;;;1.00;;
50056;SDS011;36875;49.468;11.200;2023-05-17T02:05:11;1.90;;;1.00;;
50056;SDS011;36875;49.468;11.200;2023-05-17T02:07:37;2.85;;;0.90;;
50056;SDS011;36875;49.468;11.200;2023-05-17T02:10:04;3.47;;;1.13;;
50056;SDS011;36875;49.468;11.200;2023-05-17T02:12:30;2.95;;;1.35;;
50056;SDS011;36875;49.468;11.200;2023-05-17T02:14:55;2.05;;;0.93;;
50056;SDS011;36875;49.468;11.200;2023-05-17T02:17:22;3.33;;;1.20;;
50056;SDS011;36875;49.468;11.200;2023-05-17T02:19:48;1.98;;;0.85;;
50056;SDS011;36875;49.468;11.200;2023-05-17T02:22:14;2.28;;;1.20;;
50056;SDS011;36875;49.468;11.200;2023-05-17T02:24:40;3.05;;;1.40;;
50056;SDS011;36875;49.468;11.200;2023-05-17T02:27:05;3.25;;;1.20;;
50056;SDS011;36875;49.468;11.200;2023-05-17T02:29:31;3.22;;;1.00;;
50056;SDS011;36875;49.468;11.200;2023-05-17T02:31:56;1.98;;;1.00;;
50056;SDS011;36875;49.468;11.200;2023-05-17T02:34:23;5.43;;;1.35;;
50056;SDS011;36875;49.468;11.200;2023-05-17T02:36:48;1.90;;;1.13;;
50056;SDS011;36875;49.468;11.200;2023-05-17T02:39:14;2.10;;;0.95;;
50056;SDS011;36875;49.468;11.200;2023-05-17T02:41:40;1.58;;;1.00;;
50056;SDS011;36875;49.468;11.200;2023-05-17T02:44:05;3.47;;;0.90;;
50056;SDS011;36875;49.468;11.200;2023-05-17T02:46:31;1.80;;;1.00;;
50056;SDS011;36875;49.468;11.200;2023-05-17T02:48:56;2.92;;;1.00;;
50056;SDS011;36875;49.468;11.200;2023-05-17T02:51:23;1.88;;;0.90;;
50056;SDS011;36875;49.468;11.200;2023-05-17T02:53:48;1.50;;;0.77;;
50056;SDS011;36875;49.468;11.200;2023-05-17T02:56:14;2.00;;;0.90;;
50056;SDS011;36875;49.468;11.200;2023-05-17T02:58:39;3.08;;;1.10;;
50056;SDS011;36875;49.468;11.200;2023-05-17T03:01:06;3.00;;;0.85;;
50056;SDS011;36875;49.468;11.200;2023-05-17T03:03:31;3.13;;;1.27;;
50056;SDS011;36875;49.468;11.200;2023-05-17T03:05:58;1.50;;;0.80;;
50056;SDS011;36875;49.468;11.200;2023-05-17T03:08:26;3.83;;;1.17;;
50056;SDS011;36875;49.468;11.200;2023-05-17T03:10:51;3.20;;;1.20;;
50056;SDS011;36875;49.468;11.200;2023-05-17T03:13:17;1.30;;;0.70;;
50056;SDS011;36875;49.468;11.200;2023-05-17T03:15:42;2.28;;;0.80;;
50056;SDS011;36875;49.468;11.200;2023-05-17T03:18:08;4.57;;;1.20;;
50056;SDS011;36875;49.468;11.200;2023-05-17T03:20:33;2.28;;;0.70;;
50056;SDS011;36875;49.468;11.200;2023-05-17T03:22:58;1.98;;;0.77;;
50056;SDS011;36875;49.468;11.200;2023-05-17T03:25:25;2.00;;;1.00;;
50056;SDS011;36875;49.468;11.200;2023-05-17T03:27:51;2.88;;;0.82;;
50056;SDS011;36875;49.468;11.200;2023-05-17T03:30:16;2.20;;;0.70;;
50056;SDS011;36875;49.468;11.200;2023-05-17T03:32:42;6.07;;;1.00;;
50056;SDS011;36875;49.468;11.200;2023-05-17T03:35:08;1.90;;;0.80;;
50056;SDS011;36875;49.468;11.200;2023-05-17T03:37:33;2.38;;;0.73;;
50056;SDS011;36875;49.468;11.200;2023-05-17T03:39:59;1.88;;;0.98;;
50056;SDS011;36875;49.468;11.200;2023-05-17T03:42:25;1.92;;;0.80;;
50056;SDS011;36875;49.468;11.200;2023-05-17T03:44:52;2.30;;;1.00;;
50056;SDS011;36875;49.468;11.200;2023-05-17T03:47:18;3.03;;;1.02;;
50056;SDS011;36875;49.468;11.200;2023-05-17T03:49:47;2.58;;;1.00;;
50056;SDS011;36875;49.468;11.200;2023-05-17T03:52:13;2.58;;;0.95;;
50056;SDS011;36875;49.468;11.200;2023-05-17T03:54:38;3.47;;;0.82;;
50056;SDS011;36875;49.468;11.200;2023-05-17T03:57:04;1.40;;;0.70;;
50056;SDS011;36875;49.468;11.200;2023-05-17T03:59:31;4.07;;;0.88;;
50056;SDS011;36875;49.468;11.200;2023-05-17T04:01:56;3.95;;;1.00;;
50056;SDS011;36875;49.468;11.200;2023-05-17T04:04:22;2.45;;;0.95;;
50056;SDS011;36875;49.468;11.200;2023-05-17T04:06:47;1.83;;;0.82;;
50056;SDS011;36875;49.468;11.200;2023-05-17T04:09:13;2.55;;;0.82;;
50056;SDS011;36875;49.468;11.200;2023-05-17T04:11:39;2.50;;;0.90;;
50056;SDS011;36875;49.468;11.200;2023-05-17T04:14:05;2.08;;;0.80;;
50056;SDS011;36875;49.468;11.200;2023-05-17T04:16:32;2.40;;;0.77;;
50056;SDS011;36875;49.468;11.200;2023-05-17T04:18:58;1.55;;;0.85;;
50056;SDS011;36875;49.468;11.200;2023-05-17T04:21:23;1.55;;;0.82;;
50056;SDS011;36875;49.468;11.200;2023-05-17T04:23:49;0.85;;;0.60;;
50056;SDS011;36875;49.468;11.200;2023-05-17T04:26:14;1.80;;;0.82;;
50056;SDS011;36875;49.468;11.200;2023-05-17T04:28:40;2.20;;;0.93;;
50056;SDS011;36875;49.468;11.200;2023-05-17T04:31:06;3.35;;;0.90;;
50056;SDS011;36875;49.468;11.200;2023-05-17T04:33:33;2.92;;;0.90;;
50056;SDS011;36875;49.468;11.200;2023-05-17T04:35:59;3.00;;;0.82;;
50056;SDS011;36875;49.468;11.200;2023-05-17T04:38:25;2.33;;;0.77;;
50056;SDS011;36875;49.468;11.200;2023-05-17T04:40:50;1.45;;;0.70;;
50056;SDS011;36875;49.468;11.200;2023-05-17T04:43:15;3.35;;;0.95;;
50056;SDS011;36875;49.468;11.200;2023-05-17T04:45:41;2.53;;;0.77;;
50056;SDS011;36875;49.468;11.200;2023-05-17T04:48:07;3.00;;;1.00;;
50056;SDS011;36875;49.468;11.200;2023-05-17T04:50:35;2.50;;;0.90;;
50056;SDS011;36875;49.468;11.200;2023-05-17T04:53:00;1.85;;;0.80;;
50056;SDS011;36875;49.468;11.200;2023-05-17T04:55:26;1.80;;;0.90;;
50056;SDS011;36875;49.468;11.200;2023-05-17T04:57:51;4.60;;;0.85;;
50056;SDS011;36875;49.468;11.200;2023-05-17T05:00:17;4.30;;;0.90;;
50056;SDS011;36875;49.468;11.200;2023-05-17T05:02:42;4.78;;;1.00;;
50056;SDS011;36875;49.468;11.200;2023-05-17T05:05:08;2.20;;;0.80;;
50056;SDS011;36875;49.468;11.200;2023-05-17T05:07:36;3.53;;;1.13;;
50056;SDS011;36875;49.468;11.200;2023-05-17T05:10:04;3.17;;;1.00;;
50056;SDS011;36875;49.468;11.200;2023-05-17T05:12:30;4.07;;;1.05;;
50056;SDS011;36875;49.468;11.200;2023-05-17T05:14:55;2.85;;;1.13;;
50056;SDS011;36875;49.468;11.200;2023-05-17T05:17:21;3.67;;;1.20;;
50056;SDS011;36875;49.468;11.200;2023-05-17T05:19:46;3.58;;;1.05;;
50056;SDS011;36875;49.468;11.200;2023-05-17T05:22:12;2.67;;;0.70;;
50056;SDS011;36875;49.468;11.200;2023-05-17T05:24:39;4.30;;;1.30;;
50056;SDS011;36875;49.468;11.200;2023-05-17T05:27:04;3.70;;;0.90;;
50056;SDS011;36875;49.468;11.200;2023-05-17T05:29:30;2.20;;;0.90;;
50056;SDS011;36875;49.468;11.200;2023-05-17T05:31:55;2.83;;;1.00;;
50056;SDS011;36875;49.468;11.200;2023-05-17T05:34:21;2.28;;;0.90;;
50056;SDS011;36875;49.468;11.200;2023-05-17T05:36:46;5.05;;;1.10;;
50056;SDS011;36875;49.468;11.200;2023-05-17T05:39:12;6.07;;;1.10;;
50056;SDS011;36875;49.468;11.200;2023-05-17T05:41:38;3.78;;;1.10;;
50056;SDS011;36875;49.468;11.200;2023-05-17T05:44:04;3.72;;;1.20;;
50056;SDS011;36875;49.468;11.200;2023-05-17T05:46:30;3.72;;;1.17;;
50056;SDS011;36875;49.468;11.200;2023-05-17T05:48:55;7.18;;;1.10;;
50056;SDS011;36875;49.468;11.200;2023-05-17T05:51:21;4.45;;;1.00;;
50056;SDS011;36875;49.468;11.200;2023-05-17T05:53:46;5.38;;;1.25;;
50056;SDS011;36875;49.468;11.200;2023-05-17T05:56:12;6.47;;;1.50;;
50056;SDS011;36875;49.468;11.200;2023-05-17T05:58:39;9.13;;;1.30;;
50056;SDS011;36875;49.468;11.200;2023-05-17T06:01:04;4.70;;;1.48;;
50056;SDS011;36875;49.468;11.200;2023-05-17T06:03:30;7.78;;;1.63;;
50056;SDS011;36875;49.468;11.200;2023-05-17T06:05:56;8.20;;;1.55;;
50056;SDS011;36875;49.468;11.200;2023-05-17T06:08:21;5.28;;;1.30;;
50056;SDS011;36875;49.468;11.200;2023-05-17T06:10:47;8.80;;;1.23;;
50056;SDS011;36875;49.468;11.200;2023-05-17T06:13:12;10.52;;;1.30;;
50056;SDS011;36875;49.468;11.200;2023-05-17T06:15:40;9.98;;;2.20;;
50056;SDS011;36875;49.468;11.200;2023-05-17T06:18:05;10.57;;;1.33;;
50056;SDS011;36875;49.468;11.200;2023-05-17T06:20:31;6.00;;;1.40;;
50056;SDS011;36875;49.468;11.200;2023-05-17T06:22:56;6.72;;;1.55;;
50056;SDS011;36875;49.468;11.200;2023-05-17T06:25:22;9.30;;;2.10;;
50056;SDS011;36875;49.468;11.200;2023-05-17T06:27:47;8.18;;;1.73;;
50056;SDS011;36875;49.468;11.200;2023-05-17T06:30:13;5.57;;;1.30;;
50056;SDS011;36875;49.468;11.200;2023-05-17T06:32:40;13.32;;;1.58;;
50056;SDS011;36875;49.468;11.200;2023-05-17T06:35:06;6.28;;;1.50;;
50056;SDS011;36875;49.468;11.200;2023-05-17T06:37:32;7.78;;;1.73;;
50056;SDS011;36875;49.468;11.200;2023-05-17T06:40:00;7.88;;;1.60;;
50056;SDS011;36875;49.468;11.200;2023-05-17T06:42:28;11.38;;;1.67;;
50056;SDS011;36875;49.468;11.200;2023-05-17T06:44:54;10.52;;;1.40;;
50056;SDS011;36875;49.468;11.200;2023-05-17T06:47:20;9.38;;;1.75;;
50056;SDS011;36875;49.468;11.200;2023-05-17T06:49:47;8.43;;;1.80;;
50056;SDS011;36875;49.468;11.200;2023-05-17T06:52:12;8.52;;;1.70;;
50056;SDS011;36875;49.468;11.200;2023-05-17T06:54:38;13.18;;;1.80;;
50056;SDS011;36875;49.468;11.200;2023-05-17T06:57:03;9.90;;;1.83;;
50056;SDS011;36875;49.468;11.200;2023-05-17T06:59:32;6.72;;;1.50;;
50056;SDS011;36875;49.468;11.200;2023-05-17T07:01:57;6.60;;;1.30;;
50056;SDS011;36875;49.468;11.200;2023-05-17T07:04:25;7.88;;;1.80;;
50056;SDS011;36875;49.468;11.200;2023-05-17T07:06:52;7.80;;;1.40;;
50056;SDS011;36875;49.468;11.200;2023-05-17T07:09:18;4.80;;;1.20;;
50056;SDS011;36875;49.468;11.200;2023-05-17T07:11:45;5.40;;;2.33;;
50056;SDS011;36875;49.468;11.200;2023-05-17T07:14:10;6.43;;;1.45;;
50056;SDS011;36875;49.468;11.200;2023-05-17T07:16:36;3.28;;;1.20;;
50056;SDS011;36875;49.468;11.200;2023-05-17T07:19:01;5.97;;;1.20;;
50056;SDS011;36875;49.468;11.200;2023-05-17T07:21:27;7.25;;;1.38;;
50056;SDS011;36875;49.468;11.200;2023-05-17T07:23:54;8.13;;;1.60;;
50056;SDS011;36875;49.468;11.200;2023-05-17T07:26:19;5.47;;;1.33;;
50056;SDS011;36875;49.468;11.200;2023-05-17T07:28:48;5.70;;;1.35;;
50056;SDS011;36875;49.468;11.200;2023-05-17T07:31:13;5.85;;;1.38;;
50056;SDS011;36875;49.468;11.200;2023-05-17T07:33:39;5.55;;;1.30;;
50056;SDS011;36875;49.468;11.200;2023-05-17T07:36:05;6.88;;;1.25;;
50056;SDS011;36875;49.468;11.200;2023-05-17T07:38:31;5.25;;;1.25;;
50056;SDS011;36875;49.468;11.200;2023-05-17T07:41:01;4.47;;;1.58;;
50056;SDS011;36875;49.468;11.200;2023-05-17T07:43:26;5.47;;;1.30;;
50056;SDS011;36875;49.468;11.200;2023-05-17T07:45:52;5.00;;;1.38;;
50056;SDS011;36875;49.468;11.200;2023-05-17T07:48:18;8.98;;;1.50;;
50056;SDS011;36875;49.468;11.200;2023-05-17T07:50:43;5.75;;;1.95;;
50056;SDS011;36875;49.468;11.200;2023-05-17T07:53:09;5.60;;;1.80;;
50056;SDS011;36875;49.468;11.200;2023-05-17T07:55:34;4.78;;;1.50;;
50056;SDS011;36875;49.468;11.200;2023-05-17T07:58:01;9.50;;;1.73;;
50056;SDS011;36875;49.468;11.200;2023-05-17T08:00:27;5.22;;;1.23;;
50056;SDS011;36875;49.468;11.200;2023-05-17T08:02:53;5.32;;;1.90;;
50056;SDS011;36875;49.468;11.200;2023-05-17T08:05:20;6.20;;;1.50;;
50056;SDS011;36875;49.468;11.200;2023-05-17T08:07:45;4.32;;;1.23;;
50056;SDS011;36875;49.468;11.200;2023-05-17T08:10:11;2.78;;;1.52;;
50056;SDS011;36875;49.468;11.200;2023-05-17T08:12:36;4.70;;;1.60;;
50056;SDS011;36875;49.468;11.200;2023-05-17T08:15:04;6.07;;;1.38;;
50056;SDS011;36875;49.468;11.200;2023-05-17T08:17:30;7.65;;;1.65;;
50056;SDS011;36875;49.468;11.200;2023-05-17T08:19:55;7.53;;;1.80;;
50056;SDS011;36875;49.468;11.200;2023-05-17T08:22:21;7.38;;;1.70;;
50056;SDS011;36875;49.468;11.200;2023-05-17T08:24:46;8.13;;;1.50;;
50056;SDS011;36875;49.468;11.200;2023-05-17T08:27:12;6.88;;;1.38;;
50056;SDS011;36875;49.468;11.200;2023-05-17T08:29:37;5.97;;;1.85;;
50056;SDS011;36875;49.468;11.200;2023-05-17T08:32:05;6.97;;;1.80;;
50056;SDS011;36875;49.468;11.200;2023-05-17T08:34:31;4.32;;;1.67;;
50056;SDS011;36875;49.468;11.200;2023-05-17T08:36:56;7.05;;;1.85;;
50056;SDS011;36875;49.468;11.200;2023-05-17T08:39:22;9.10;;;1.63;;
50056;SDS011;36875;49.468;11.200;2023-05-17T08:41:47;7.30;;;1.98;;
50056;SDS011;36875;49.468;11.200;2023-05-17T08:44:13;3.85;;;1.50;;
50056;SDS011;36875;49.468;11.200;2023-05-17T08:46:40;3.65;;;1.75;;
50056;SDS011;36875;49.468;11.200;2023-05-17T08:49:09;6.13;;;1.80;;
50056;SDS011;36875;49.468;11.200;2023-05-17T08:51:39;7.43;;;1.85;;
50056;SDS011;36875;49.468;11.200;2023-05-17T08:54:06;5.70;;;1.70;;
50056;SDS011;36875;49.468;11.200;2023-05-17T08:56:32;6.45;;;2.08;;
50056;SDS011;36875;49.468;11.200;2023-05-17T08:59:01;5.32;;;1.65;;
50056;SDS011;36875;49.468;11.200;2023-05-17T09:01:30;5.28;;;1.58;;
50056;SDS011;36875;49.468;11.200;2023-05-17T09:03:56;7.07;;;2.17;;
50056;SDS011;36875;49.468;11.200;2023-05-17T09:06:25;10.80;;;2.92;;
50056;SDS011;36875;49.468;11.200;2023-05-17T09:08:52;10.32;;;2.80;;
50056;SDS011;36875;49.468;11.200;2023-05-17T09:11:23;8.48;;;2.50;;
50056;SDS011;36875;49.468;11.200;2023-05-17T09:13:49;9.65;;;3.10;;
50056;SDS011;36875;49.468;11.200;2023-05-17T09:16:15;11.85;;;3.05;;
50056;SDS011;36875;49.468;11.200;2023-05-17T09:18:41;13.75;;;2.95;;
50056;SDS011;36875;49.468;11.200;2023-05-17T09:21:07;12.93;;;3.38;;
50056;SDS011;36875;49.468;11.200;2023-05-17T09:23:36;10.88;;;2.78;;
50056;SDS011;36875;49.468;11.200;2023-05-17T09:26:05;8.77;;;2.88;;
50056;SDS011;36875;49.468;11.200;2023-05-17T09:28:40;14.38;;;3.20;;
50056;SDS011;36875;49.468;11.200;2023-05-17T09:31:06;9.52;;;3.03;;
50056;SDS011;36875;49.468;11.200;2023-05-17T09:33:33;14.32;;;3.03;;
50056;SDS011;36875;49.468;11.200;2023-05-17T09:36:10;8.75;;;2.80;;
50056;SDS011;36875;49.468;11.200;2023-05-17T09:38:41;11.85;;;3.00;;
50056;SDS011;36875;49.468;11.200;2023-05-17T09:41:08;8.07;;;2.60;;
50056;SDS011;36875;49.468;11.200;2023-05-17T09:43:34;8.70;;;2.95;;
50056;SDS011;36875;49.468;11.200;2023-05-17T09:45:59;15.52;;;3.95;;
50056;SDS011;36875;49.468;11.200;2023-05-17T09:48:25;9.52;;;2.78;;
50056;SDS011;36875;49.468;11.200;2023-05-17T09:50:54;8.75;;;3.08;;
50056;SDS011;36875;49.468;11.200;2023-05-17T09:53:23;11.98;;;2.90;;
50056;SDS011;36875;49.468;11.200;2023-05-17T09:55:52;13.98;;;2.85;;
50056;SDS011;36875;49.468;11.200;2023-05-17T09:58:18;12.27;;;3.10;;
50056;SDS011;36875;49.468;11.200;2023-05-17T10:00:44;11.00;;;3.05;;
50056;SDS011;36875;49.468;11.200;2023-05-17T10:03:15;13.52;;;3.28;;
50056;SDS011;36875;49.468;11.200;2023-05-17T10:05:42;12.05;;;3.80;;
50056;SDS011;36875;49.468;11.200;2023-05-17T10:08:08;9.60;;;2.80;;
50056;SDS011;36875;49.468;11.200;2023-05-17T10:10:37;14.85;;;3.40;;
50056;SDS011;36875;49.468;11.200;2023-05-17T10:13:05;14.13;;;2.95;;
50056;SDS011;36875;49.468;11.200;2023-05-17T10:15:34;12.60;;;3.53;;
50056;SDS011;36875;49.468;11.200;2023-05-17T10:18:01;9.98;;;2.97;;
50056;SDS011;36875;49.468;11.200;2023-05-17T10:20:27;11.48;;;3.17;;
50056;SDS011;36875;49.468;11.200;2023-05-17T10:22:54;16.98;;;3.10;;
50056;SDS011;36875;49.468;11.200;2023-05-17T10:25:21;10.75;;;3.30;;
50056;SDS011;36875;49.468;11.200;2023-05-17T10:27:47;13.55;;;3.03;;
50056;SDS011;36875;49.468;11.200;2023-05-17T10:30:16;11.63;;;3.30;;
50056;SDS011;36875;49.468;11.200;2023-05-17T10:32:42;9.27;;;2.97;;
50056;SDS011;36875;49.468;11.200;2023-05-17T10:35:09;10.95;;;2.92;;
50056;SDS011;36875;49.468;11.200;2023-05-17T10:37:36;9.20;;;2.95;;
50056;SDS011;36875;49.468;11.200;2023-05-17T10:40:03;9.07;;;2.92;;
50056;SDS011;36875;49.468;11.200;2023-05-17T10:42:29;10.43;;;3.28;;
50056;SDS011;36875;49.468;11.200;2023-05-17T10:44:56;11.45;;;3.58;;
50056;SDS011;36875;49.468;11.200;2023-05-17T10:47:23;12.70;;;3.10;;
50056;SDS011;36875;49.468;11.200;2023-05-17T10:49:56;12.57;;;3.78;;
50056;SDS011;36875;49.468;11.200;2023-05-17T10:52:22;14.97;;;3.27;;
50056;SDS011;36875;49.468;11.200;2023-05-17T10:54:49;11.18;;;2.72;;
50056;SDS011;36875;49.468;11.200;2023-05-17T10:57:19;9.73;;;2.92;;
50056;SDS011;36875;49.468;11.200;2023-05-17T10:59:55;14.13;;;3.92;;
50056;SDS011;36875;49.468;11.200;2023-05-17T11:02:26;10.27;;;3.15;;
50056;SDS011;36875;49.468;11.200;2023-05-17T11:04:52;26.45;;;3.70;;
50056;SDS011;36875;49.468;11.200;2023-05-17T11:07:24;11.02;;;3.58;;
50056;SDS011;36875;49.468;11.200;2023-05-17T11:09:52;13.57;;;3.25;;
50056;SDS011;36875;49.468;11.200;2023-05-17T11:12:27;11.95;;;3.05;;
50056;SDS011;36875;49.468;11.200;2023-05-17T11:14:55;14.90;;;3.17;;
50056;SDS011;36875;49.468;11.200;2023-05-17T11:17:22;11.45;;;3.25;;
50056;SDS011;36875;49.468;11.200;2023-05-17T11:20:00;15.07;;;3.78;;
50056;SDS011;36875;49.468;11.200;2023-05-17T11:22:33;11.05;;;2.65;;
50056;SDS011;36875;49.468;11.200;2023-05-17T11:25:01;14.07;;;3.47;;
50056;SDS011;36875;49.468;11.200;2023-05-17T11:27:34;10.82;;;2.92;;
50056;SDS011;36875;49.468;11.200;2023-05-17T11:30:07;10.82;;;3.35;;
50056;SDS011;36875;49.468;11.200;2023-05-17T11:32:35;14.32;;;3.67;;
50056;SDS011;36875;49.468;11.200;2023-05-17T11:35:01;13.70;;;3.25;;
50056;SDS011;36875;49.468;11.200;2023-05-17T11:37:27;10.13;;;2.83;;
50056;SDS011;36875;49.468;11.200;2023-05-17T11:40:00;15.57;;;3.33;;
50056;SDS011;36875;49.468;11.200;2023-05-17T11:42:27;12.35;;;3.45;;
50056;SDS011;36875;49.468;11.200;2023-05-17T11:44:55;12.98;;;4.15;;
50056;SDS011;36875;49.468;11.200;2023-05-17T11:47:21;12.60;;;3.83;;
50056;SDS011;36875;49.468;11.200;2023-05-17T11:49:48;14.88;;;3.13;;
50056;SDS011;36875;49.468;11.200;2023-05-17T11:52:17;11.18;;;3.00;;
50056;SDS011;36875;49.468;11.200;2023-05-17T11:54:43;15.18;;;3.38;;
50056;SDS011;36875;49.468;11.200;2023-05-17T11:57:10;18.85;;;4.00;;
50056;SDS011;36875;49.468;11.200;2023-05-17T11:59:39;14.38;;;3.45;;
50056;SDS011;36875;49.468;11.200;2023-05-17T12:02:05;15.68;;;3.13;;
50056;SDS011;36875;49.468;11.200;2023-05-17T12:04:33;10.82;;;2.97;;
50056;SDS011;36875;49.468;11.200;2023-05-17T12:07:00;10.50;;;2.95;;
50056;SDS011;36875;49.468;11.200;2023-05-17T12:09:26;14.68;;;3.28;;
50056;SDS011;36875;49.468;11.200;2023-05-17T12:11:52;11.40;;;3.17;;
50056;SDS011;36875;49.468;11.200;2023-05-17T12:14:17;10.93;;;2.92;;
50056;SDS011;36875;49.468;11.200;2023-05-17T12:16:44;12.27;;;3.20;;
50056;SDS011;36875;49.468;11.200;2023-05-17T12:19:16;7.53;;;2.75;;
50056;SDS011;36875;49.468;11.200;2023-05-17T12:21:43;9.63;;;2.88;;
50056;SDS011;36875;49.468;11.200;2023-05-17T12:24:09;12.45;;;2.97;;
50056;SDS011;36875;49.468;11.200;2023-05-17T12:26:35;12.65;;;3.95;;
50056;SDS011;36875;49.468;11.200;2023-05-17T12:29:08;12.73;;;3.40;;
50056;SDS011;36875;49.468;11.200;2023-05-17T12:31:47;10.02;;;2.55;;
50056;SDS011;36875;49.468;11.200;2023-05-17T12:34:15;13.00;;;2.90;;
50056;SDS011;36875;49.468;11.200;2023-05-17T12:36:42;12.10;;;2.60;;
50056;SDS011;36875;49.468;11.200;2023-05-17T12:39:10;11.77;;;2.90;;
50056;SDS011;36875;49.468;11.200;2023-05-17T12:41:36;11.80;;;3.60;;
50056;SDS011;36875;49.468;11.200;2023-05-17T12:44:03;8.90;;;2.70;;
50056;SDS011;36875;49.468;11.200;2023-05-17T12:46:30;8.63;;;2.60;;
50056;SDS011;36875;49.468;11.200;2023-05-17T12:48:59;9.77;;;2.40;;
50056;SDS011;36875;49.468;11.200;2023-05-17T12:51:29;7.95;;;2.22;;
50056;SDS011;36875;49.468;11.200;2023-05-17T12:54:04;7.50;;;2.47;;
50056;SDS011;36875;49.468;11.200;2023-05-17T12:56:31;9.95;;;2.30;;
50056;SDS011;36875;49.468;11.200;2023-05-17T12:59:03;10.93;;;2.35;;
50056;SDS011;36875;49.468;11.200;2023-05-17T13:01:31;9.65;;;2.53;;
50056;SDS011;36875;49.468;11.200;2023-05-17T13:03:58;9.25;;;2.72;;
50056;SDS011;36875;49.468;11.200;2023-05-17T13:06:23;7.50;;;2.63;;
50056;SDS011;36875;49.468;11.200;2023-05-17T13:08:56;7.55;;;2.67;;
50056;SDS011;36875;49.468;11.200;2023-05-17T13:11:23;7.13;;;2.30;;
50056;SDS011;36875;49.468;11.200;2023-05-17T13:13:50;9.10;;;2.88;;
50056;SDS011;36875;49.468;11.200;2023-05-17T13:16:16;8.32;;;2.65;;
50056;SDS011;36875;49.468;11.200;2023-05-17T13:18:48;7.30;;;2.53;;
50056;SDS011;36875;49.468;11.200;2023-05-17T13:21:15;10.45;;;2.42;;
50056;SDS011;36875;49.468;11.200;2023-05-17T13:23:42;7.40;;;2.45;;
50056;SDS011;36875;49.468;11.200;2023-05-17T13:26:08;8.32;;;2.92;;
50056;SDS011;36875;49.468;11.200;2023-05-17T13:28:33;10.82;;;2.50;;
50056;SDS011;36875;49.468;11.200;2023-05-17T13:31:00;9.70;;;2.67;;
50056;SDS011;36875;49.468;11.200;2023-05-17T13:33:26;9.98;;;2.67;;
50056;SDS011;36875;49.468;11.200;2023-05-17T13:35:51;8.88;;;2.58;;
50056;SDS011;36875;49.468;11.200;2023-05-17T13:38:17;8.00;;;2.65;;
50056;SDS011;36875;49.468;11.200;2023-05-17T13:40:42;5.72;;;2.08;;
50056;SDS011;36875;49.468;11.200;2023-05-17T13:43:08;5.00;;;1.98;;
50056;SDS011;36875;49.468;11.200;2023-05-17T13:45:34;8.30;;;2.50;;
50056;SDS011;36875;49.468;11.200;2023-05-17T13:48:01;10.45;;;2.40;;
50056;SDS011;36875;49.468;11.200;2023-05-17T13:50:27;6.25;;;2.53;;
50056;SDS011;36875;49.468;11.200;2023-05-17T13:52:56;8.38;;;2.80;;
50056;SDS011;36875;49.468;11.200;2023-05-17T13:55:21;7.80;;;2.70;;
50056;SDS011;36875;49.468;11.200;2023-05-17T13:57:47;6.47;;;2.65;;
50056;SDS011;36875;49.468;11.200;2023-05-17T14:00:13;6.88;;;2.20;;
50056;SDS011;36875;49.468;11.200;2023-05-17T14:02:39;5.25;;;2.35;;
50056;SDS011;36875;49.468;11.200;2023-05-17T14:05:06;5.28;;;2.00;;
50056;SDS011;36875;49.468;11.200;2023-05-17T14:07:33;8.07;;;2.17;;
50056;SDS011;36875;49.468;11.200;2023-05-17T14:09:59;6.70;;;2.17;;
50056;SDS011;36875;49.468;11.200;2023-05-17T14:12:28;7.50;;;2.40;;
50056;SDS011;36875;49.468;11.200;2023-05-17T14:14:54;6.50;;;2.00;;
50056;SDS011;36875;49.468;11.200;2023-05-17T14:17:19;7.72;;;2.38;;
50056;SDS011;36875;49.468;11.200;2023-05-17T14:19:45;8.38;;;3.05;;
50056;SDS011;36875;49.468;11.200;2023-05-17T14:22:15;6.88;;;2.05;;
50056;SDS011;36875;49.468;11.200;2023-05-17T14:24:40;9.45;;;2.40;;
50056;SDS011;36875;49.468;11.200;2023-05-17T14:27:06;5.25;;;2.08;;
50056;SDS011;36875;49.468;11.200;2023-05-17T14:29:31;6.93;;;2.17;;